Neola, Iowa
Current Conditions -  °F | °C
As of 12:35 PM on Wednesday 26 Nov 2014 (Local Time) from KCBF Reporting Station
Overcast Overcast  
Wind Chill: 18°   Ceiling: 1200
Heat Index: 30°   Visibility: 10mi
Dew Point: 28°   Wind: 20mph
Humidity: 93%   Direction: 330°NNW
Pressure: 30.06"   Gusts: 33mph
Location:  41.45°N, 95.62°W
Report Text: KCBF 261835Z AUTO 33017G29KT 10SM OVC012 M01/M02 A3006 RMK AO2
Loading
Personal Weather Stations






























Interactive Weather Map New forecast layout! Learn more

10-Day Weather Forecast

Advertisements
Track Severe Weather on mobile